createdAt,value
2022-12-03T00:00:12.735Z,100.00
2022-12-03T00:03:02.544Z,100.00
2022-12-03T00:05:48.759Z,100.00
2022-12-03T00:08:19.334Z,100.00
2022-12-03T00:17:03.207Z,100.00
2022-12-03T00:19:31.941Z,100.00
2022-12-03T00:22:00.624Z,100.00
2022-12-03T00:24:29.459Z,100.00
2022-12-03T00:26:58.141Z,100.00
2022-12-03T00:29:26.948Z,100.00
2022-12-03T00:31:55.715Z,99.94
2022-12-03T00:34:24.587Z,99.61
2022-12-03T00:36:53.461Z,99.83
2022-12-03T00:39:22.241Z,99.85
2022-12-03T00:41:51.041Z,100.00
2022-12-03T00:44:19.836Z,99.92
2022-12-03T00:46:48.521Z,100.00
2022-12-03T00:49:17.313Z,100.00
2022-12-03T00:51:46.135Z,99.65
2022-12-03T00:54:15.101Z,98.88
2022-12-03T00:56:43.993Z,100.00
2022-12-03T00:59:12.743Z,97.32
2022-12-03T01:01:41.602Z,96.73
2022-12-03T01:04:10.462Z,98.15
2022-12-03T01:06:40.175Z,99.16
2022-12-03T01:09:08.801Z,97.42
2022-12-03T01:11:41.677Z,99.35
2022-12-03T01:14:19.389Z,98.76
2022-12-03T01:16:49.062Z,98.30
2022-12-03T01:19:19.783Z,97.38
2022-12-03T01:21:51.350Z,98.80
2022-12-03T01:24:20.813Z,98.91
2022-12-03T01:26:49.512Z,99.96
2022-12-03T01:29:18.400Z,99.65
2022-12-03T01:32:05.982Z,97.04
2022-12-03T01:34:34.696Z,96.45
2022-12-03T01:37:03.938Z,96.65
2022-12-03T01:39:32.669Z,97.38
2022-12-03T01:42:03.082Z,100.00
2022-12-03T01:44:35.244Z,98.89
2022-12-03T01:47:10.728Z,99.45
2022-12-03T01:49:57.214Z,100.00
2022-12-03T01:52:31.848Z,100.00
2022-12-03T01:55:05.388Z,100.00
2022-12-03T01:57:44.410Z,97.44
2022-12-03T02:00:17.336Z,96.13
2022-12-03T02:02:49.735Z,96.85
2022-12-03T02:05:27.119Z,99.98
2022-12-03T02:07:58.851Z,99.97
2022-12-03T02:10:37.951Z,100.00
2022-12-03T02:13:11.323Z,97.76
2022-12-03T02:15:41.220Z,99.61
2022-12-03T02:18:10.662Z,100.00
2022-12-03T02:21:02.766Z,98.35
2022-12-03T02:24:06.621Z,100.00
2022-12-03T02:26:36.083Z,99.63
2022-12-03T02:29:05.180Z,99.75
2022-12-03T02:31:34.028Z,99.99
2022-12-03T02:34:10.840Z,98.90
2022-12-03T02:36:40.216Z,98.01
2022-12-03T02:39:10.623Z,98.42
2022-12-03T02:41:58.197Z,99.66
2022-12-03T02:44:26.937Z,99.88
2022-12-03T02:46:55.823Z,99.67
2022-12-03T02:49:24.658Z,98.33
2022-12-03T02:51:53.424Z,99.93
2022-12-03T02:54:22.221Z,98.77
2022-12-03T02:56:51.041Z,100.00
2022-12-03T02:59:19.765Z,99.72
2022-12-03T03:01:48.673Z,99.91
2022-12-03T03:04:17.541Z,98.32
2022-12-03T03:06:47.247Z,97.43
2022-12-03T03:09:16.026Z,98.07
2022-12-03T03:11:44.625Z,99.33
2022-12-03T03:14:14.207Z,99.86
2022-12-03T03:16:43.115Z,96.66
2022-12-03T03:19:12.121Z,96.21
2022-12-03T03:21:40.753Z,98.10
2022-12-03T03:24:11.208Z,99.93
2022-12-03T03:26:40.059Z,99.62
2022-12-03T03:29:08.879Z,98.70
2022-12-03T03:31:38.980Z,97.09
2022-12-03T03:34:08.831Z,97.78
2022-12-03T03:36:37.853Z,98.09
2022-12-03T03:39:07.438Z,97.56
2022-12-03T03:41:37.096Z,97.92
2022-12-03T03:44:08.332Z,98.77
2022-12-03T03:46:38.637Z,98.71
2022-12-03T03:49:07.805Z,98.47
2022-12-03T03:51:38.395Z,98.24
2022-12-03T03:54:08.456Z,99.88
2022-12-03T03:56:37.613Z,100.00
2022-12-03T03:59:08.437Z,99.23
2022-12-03T04:01:37.390Z,98.58
2022-12-03T04:04:20.174Z,96.07
2022-12-03T04:06:49.796Z,98.29
2022-12-03T04:09:18.870Z,96.15
2022-12-03T04:12:10.498Z,96.66
2022-12-03T04:14:39.221Z,97.45
2022-12-03T04:17:07.880Z,96.73
2022-12-03T04:19:36.645Z,99.25
2022-12-03T04:22:24.215Z,98.54
2022-12-03T04:25:12.815Z,97.82
2022-12-03T04:28:02.852Z,96.93
2022-12-03T04:30:31.644Z,96.17
2022-12-03T04:33:18.667Z,96.41
2022-12-03T04:35:50.366Z,97.15
2022-12-03T04:38:19.128Z,96.79
2022-12-03T04:41:04.519Z,98.52
2022-12-03T04:43:55.628Z,96.29
2022-12-03T04:46:24.404Z,97.51
2022-12-03T04:48:53.201Z,95.30
2022-12-03T04:51:21.907Z,94.79
2022-12-03T04:53:50.647Z,96.20
2022-12-03T04:56:19.364Z,96.59
2022-12-03T04:58:48.334Z,97.34
2022-12-03T05:01:17.894Z,97.36
2022-12-03T05:03:46.793Z,96.63
2022-12-03T05:06:15.516Z,96.47
2022-12-03T05:08:44.390Z,96.87
2022-12-03T05:11:13.243Z,98.88
2022-12-03T05:13:43.108Z,95.64
2022-12-03T05:16:12.308Z,97.88
2022-12-03T05:18:41.072Z,97.34
2022-12-03T05:21:10.615Z,96.53
2022-12-03T05:23:39.266Z,92.71
2022-12-03T05:26:07.911Z,92.67
2022-12-03T05:28:36.699Z,92.35
2022-12-03T05:31:05.558Z,94.23
2022-12-03T05:33:37.269Z,97.21
2022-12-03T05:36:08.908Z,98.70
2022-12-03T05:38:37.637Z,94.95
2022-12-03T05:41:26.434Z,95.05
2022-12-03T05:43:55.946Z,97.96
2022-12-03T05:46:24.624Z,96.36
2022-12-03T05:48:53.328Z,94.63
2022-12-03T05:51:22.055Z,92.04
2022-12-03T05:53:50.781Z,90.83
2022-12-03T05:56:19.438Z,91.97
2022-12-03T05:58:48.414Z,94.55
2022-12-03T06:01:17.133Z,97.11
2022-12-03T06:03:46.100Z,97.71
2022-12-03T06:06:15.037Z,95.88
2022-12-03T06:08:43.630Z,99.31
2022-12-03T06:11:12.383Z,99.03
2022-12-03T06:13:41.140Z,95.44
2022-12-03T06:16:10.039Z,95.51
2022-12-03T06:18:38.951Z,93.26
2022-12-03T06:21:07.658Z,96.45
2022-12-03T06:23:37.554Z,96.06
2022-12-03T06:26:06.282Z,95.53
2022-12-03T06:28:35.061Z,96.73
2022-12-03T06:31:04.274Z,97.32
2022-12-03T06:33:33.380Z,95.51
2022-12-03T06:36:02.021Z,93.77
2022-12-03T06:38:30.900Z,94.36
2022-12-03T06:40:59.617Z,95.30
2022-12-03T06:43:28.293Z,94.17
2022-12-03T06:45:57.166Z,95.41
2022-12-03T06:48:26.073Z,93.89
2022-12-03T06:50:54.736Z,96.17
2022-12-03T06:53:23.555Z,95.26
2022-12-03T06:55:52.602Z,94.26
2022-12-03T06:58:21.636Z,95.84
2022-12-03T07:00:50.422Z,94.51
2022-12-03T07:03:19.174Z,96.03
2022-12-03T07:05:47.857Z,96.24
2022-12-03T07:08:16.682Z,94.84
2022-12-03T07:10:45.437Z,94.63
2022-12-03T07:13:14.188Z,94.98
2022-12-03T07:15:43.056Z,92.86
2022-12-03T07:18:12.213Z,92.14
2022-12-03T07:20:41.676Z,93.14
2022-12-03T07:23:10.358Z,92.10
2022-12-03T07:25:39.152Z,93.08
2022-12-03T07:29:48.512Z,93.47
2022-12-03T07:32:17.323Z,92.72
2022-12-03T07:34:46.111Z,97.05
2022-12-03T07:37:18.606Z,97.31
2022-12-03T07:39:50.474Z,91.98
2022-12-03T07:42:19.178Z,93.12
2022-12-03T07:44:47.983Z,92.52
2022-12-03T07:47:16.625Z,91.05
2022-12-03T07:49:45.309Z,91.83
2022-12-03T07:52:13.937Z,92.38
2022-12-03T07:54:43.295Z,91.07
2022-12-03T07:57:11.987Z,90.23
2022-12-03T07:59:40.732Z,90.79
2022-12-03T08:02:11.484Z,91.67
2022-12-03T08:04:40.242Z,89.87
2022-12-03T08:07:08.879Z,90.35
2022-12-03T08:09:42.634Z,92.17
2022-12-03T08:12:40.383Z,89.40
2022-12-03T08:15:25.144Z,89.29
2022-12-03T08:18:02.643Z,91.16
2022-12-03T08:20:43.088Z,91.20
2022-12-03T08:23:24.271Z,91.10
2022-12-03T08:25:53.662Z,90.17
2022-12-03T08:28:27.363Z,88.28
2022-12-03T08:31:32.856Z,86.76
2022-12-03T08:34:37.073Z,86.78
2022-12-03T08:37:19.935Z,86.19
2022-12-03T08:39:55.401Z,84.75
2022-12-03T08:42:42.447Z,86.86
2022-12-03T08:45:29.594Z,87.18
2022-12-03T08:48:29.295Z,87.09
2022-12-03T08:51:02.271Z,85.95
2022-12-03T08:54:13.768Z,88.15
2022-12-03T08:56:42.539Z,87.20
2022-12-03T08:59:31.856Z,84.93
2022-12-03T09:02:00.683Z,84.36
2022-12-03T09:04:46.849Z,86.31
2022-12-03T09:07:15.486Z,86.67
2022-12-03T09:09:44.129Z,85.41
2022-12-03T09:12:12.819Z,86.83
2022-12-03T09:14:43.447Z,88.29
2022-12-03T09:17:12.568Z,87.05
2022-12-03T09:19:46.282Z,87.54
2022-12-03T09:22:26.043Z,86.63
2022-12-03T09:24:54.948Z,87.98
2022-12-03T09:27:23.959Z,84.93
2022-12-03T09:29:52.610Z,87.62
2022-12-03T09:32:21.363Z,86.35
2022-12-03T09:34:50.128Z,84.88
2022-12-03T09:37:18.867Z,86.45
2022-12-03T09:39:47.677Z,83.43
2022-12-03T09:42:17.395Z,86.31
2022-12-03T09:44:46.391Z,86.78
2022-12-03T09:47:15.078Z,85.59
2022-12-03T09:49:44.313Z,85.00
2022-12-03T09:52:25.637Z,86.04
2022-12-03T09:54:55.555Z,85.73
2022-12-03T09:57:24.989Z,83.85
2022-12-03T09:59:59.318Z,85.19
2022-12-03T10:02:31.204Z,84.05
2022-12-03T10:05:00.179Z,83.88
2022-12-03T10:07:29.352Z,85.01
2022-12-03T10:09:58.315Z,84.13
2022-12-03T10:12:27.434Z,83.83
2022-12-03T10:14:56.739Z,82.67
2022-12-03T10:17:27.317Z,83.86
2022-12-03T10:19:56.285Z,83.31
2022-12-03T10:22:25.132Z,81.72
2022-12-03T10:25:22.687Z,80.60
2022-12-03T10:28:01.737Z,82.86
2022-12-03T10:30:30.779Z,85.18
2022-12-03T10:33:02.976Z,82.78
2022-12-03T10:35:44.003Z,81.46
2022-12-03T10:38:18.704Z,81.39
2022-12-03T10:41:30.275Z,83.48
2022-12-03T10:44:31.163Z,85.58
2022-12-03T10:47:11.987Z,82.61
2022-12-03T10:49:42.394Z,80.59
2022-12-03T10:52:25.892Z,82.24
2022-12-03T10:54:55.295Z,79.78
2022-12-03T10:57:25.271Z,79.90
2022-12-03T10:59:54.045Z,81.87
2022-12-03T11:02:25.049Z,80.38
2022-12-03T11:04:55.867Z,81.24
2022-12-03T11:07:26.575Z,83.65
2022-12-03T11:09:55.732Z,82.76
2022-12-03T11:12:29.503Z,80.26
2022-12-03T11:15:05.440Z,81.54
2022-12-03T11:17:43.004Z,79.40
2022-12-03T11:20:22.647Z,78.02
2022-12-03T11:22:54.444Z,77.79
2022-12-03T11:25:26.179Z,78.61
2022-12-03T11:28:13.292Z,78.93
2022-12-03T11:30:51.219Z,79.91
2022-12-03T11:33:33.273Z,79.70
2022-12-03T11:36:04.859Z,81.23
2022-12-03T11:38:52.980Z,81.52
2022-12-03T11:41:27.305Z,78.91
2022-12-03T11:43:56.611Z,79.45
2022-12-03T11:46:30.016Z,78.84
2022-12-03T11:49:00.954Z,80.61
2022-12-03T11:51:31.063Z,82.56
2022-12-03T11:54:00.964Z,81.07
2022-12-03T11:56:30.791Z,81.57
2022-12-03T11:59:12.030Z,79.30
2022-12-03T12:01:43.009Z,83.62
2022-12-03T12:04:28.405Z,78.41
2022-12-03T12:06:57.190Z,81.38
2022-12-03T12:09:55.834Z,82.75
2022-12-03T12:12:37.165Z,80.43
2022-12-03T12:15:40.159Z,80.39
2022-12-03T12:18:39.949Z,79.83
2022-12-03T12:21:51.228Z,82.15
2022-12-03T12:24:43.407Z,81.89
2022-12-03T12:27:13.597Z,84.78
2022-12-03T12:29:48.643Z,80.73
2022-12-03T12:33:26.382Z,81.51
2022-12-03T12:36:09.528Z,81.14
2022-12-03T12:38:38.211Z,81.76
2022-12-03T12:41:09.526Z,82.57
2022-12-03T12:43:41.400Z,81.31
2022-12-03T12:46:46.657Z,82.35
2022-12-03T12:49:20.764Z,82.28
2022-12-03T12:51:50.763Z,81.86
2022-12-03T12:54:19.647Z,83.05
2022-12-03T12:56:50.879Z,82.50
2022-12-03T12:59:22.400Z,82.30
2022-12-03T13:01:51.395Z,83.02
2022-12-03T13:04:25.855Z,83.72
2022-12-03T13:06:55.279Z,83.21
2022-12-03T13:09:26.319Z,83.50
2022-12-03T13:12:01.561Z,83.06
2022-12-03T13:14:38.170Z,82.19
2022-12-03T13:17:24.805Z,82.99
2022-12-03T13:20:07.895Z,82.80
2022-12-03T13:22:38.824Z,82.44
2022-12-03T13:25:59.404Z,82.77
2022-12-03T13:28:30.511Z,84.30
2022-12-03T13:31:32.278Z,83.73
2022-12-03T13:34:02.495Z,84.14
2022-12-03T13:36:44.471Z,83.67
2022-12-03T13:39:24.485Z,81.80
2022-12-03T13:42:16.254Z,84.30
2022-12-03T13:44:49.339Z,82.93
2022-12-03T13:47:24.144Z,86.16
2022-12-03T13:49:58.615Z,85.74
2022-12-03T13:52:27.774Z,85.85
2022-12-03T13:54:57.429Z,82.87
2022-12-03T13:57:26.523Z,83.56
2022-12-03T13:59:55.656Z,84.28
2022-12-03T14:02:25.227Z,87.39
2022-12-03T14:05:00.021Z,85.03
2022-12-03T14:07:29.802Z,85.29
2022-12-03T14:10:01.381Z,85.24
2022-12-03T14:12:33.960Z,87.11
2022-12-03T14:15:05.595Z,92.53
2022-12-03T14:17:34.290Z,89.89
2022-12-03T14:20:06.048Z,88.40
2022-12-03T14:22:38.185Z,90.70
2022-12-03T14:25:07.972Z,90.90
2022-12-03T14:27:36.815Z,89.09
2022-12-03T14:30:06.687Z,88.64
2022-12-03T14:32:35.328Z,88.05
2022-12-03T14:35:09.662Z,89.01
2022-12-03T14:37:38.898Z,87.93
2022-12-03T14:40:09.292Z,87.52
2022-12-03T14:42:37.958Z,89.23
2022-12-03T14:45:07.578Z,87.94
2022-12-03T14:47:36.384Z,88.47
2022-12-03T14:50:06.245Z,86.97
2022-12-03T14:52:34.952Z,86.81
2022-12-03T14:55:04.046Z,87.33
2022-12-03T14:57:32.689Z,88.44
2022-12-03T15:00:01.375Z,87.52
2022-12-03T15:02:30.623Z,89.13
2022-12-03T15:04:59.403Z,90.60
2022-12-03T15:07:28.099Z,88.94
2022-12-03T15:09:57.042Z,89.74
2022-12-03T15:12:26.340Z,91.10
2022-12-03T15:14:55.279Z,91.40
2022-12-03T15:17:31.279Z,90.80
2022-12-03T15:20:00.548Z,88.99
2022-12-03T15:22:29.256Z,92.64
2022-12-03T15:24:57.969Z,90.25
2022-12-03T15:27:26.723Z,92.78
2022-12-03T15:29:55.804Z,93.11
2022-12-03T15:32:24.893Z,90.42
2022-12-03T15:34:53.609Z,91.91
2022-12-03T15:37:22.278Z,91.85
2022-12-03T15:39:50.896Z,92.77
2022-12-03T15:42:19.575Z,90.45
2022-12-03T15:44:48.180Z,91.42
2022-12-03T15:47:16.997Z,90.69
2022-12-03T15:49:45.660Z,90.12
2022-12-03T15:52:14.307Z,90.71
2022-12-03T15:54:42.964Z,91.35
2022-12-03T15:57:18.453Z,91.52
2022-12-03T15:59:47.373Z,92.82
2022-12-03T16:02:16.648Z,93.93
2022-12-03T16:04:48.025Z,93.83
2022-12-03T16:07:17.592Z,94.02
2022-12-03T16:09:47.482Z,97.36
2022-12-03T16:12:16.146Z,95.41
2022-12-03T16:14:44.849Z,95.11
2022-12-03T16:17:13.734Z,94.48
2022-12-03T16:19:42.638Z,97.19
2022-12-03T16:22:11.338Z,96.05
2022-12-03T16:24:40.052Z,94.37
2022-12-03T16:27:08.854Z,95.70
2022-12-03T16:29:37.456Z,92.79
2022-12-03T16:32:06.213Z,92.59
2022-12-03T16:34:34.915Z,93.04
2022-12-03T16:37:05.406Z,93.82
2022-12-03T16:39:36.631Z,98.99
2022-12-03T16:42:11.776Z,95.51
2022-12-03T16:45:34.910Z,93.80
2022-12-03T16:48:03.771Z,93.55
2022-12-03T16:50:32.459Z,94.13
2022-12-03T16:53:01.080Z,94.18
2022-12-03T16:55:29.758Z,96.48
2022-12-03T16:57:58.453Z,96.71
2022-12-03T17:00:27.579Z,97.00
2022-12-03T17:02:56.369Z,98.42
2022-12-03T17:05:25.120Z,97.58
2022-12-03T17:07:53.965Z,95.60
2022-12-03T17:10:22.797Z,94.77
2022-12-03T17:15:41.472Z,97.79
2022-12-03T17:18:10.776Z,99.08
2022-12-03T17:20:39.459Z,98.15
2022-12-03T17:23:09.025Z,99.94
2022-12-03T17:25:37.734Z,100.00
2022-12-03T17:28:06.636Z,99.34
2022-12-03T17:30:35.594Z,99.76
2022-12-03T17:33:04.331Z,100.00
2022-12-03T17:35:33.197Z,100.00
2022-12-03T17:38:03.100Z,100.00
2022-12-03T17:40:32.210Z,100.00
2022-12-03T17:43:01.134Z,100.00
2022-12-03T17:45:29.704Z,100.00
2022-12-03T17:47:58.466Z,99.90
2022-12-03T17:50:27.267Z,100.00
2022-12-03T17:52:55.943Z,100.00
2022-12-03T17:55:35.895Z,100.00
2022-12-03T17:58:06.817Z,100.00
2022-12-03T18:00:35.607Z,100.00
2022-12-03T18:03:05.305Z,100.00
2022-12-03T18:05:34.090Z,100.00
2022-12-03T18:08:03.020Z,100.00
2022-12-03T18:10:31.754Z,100.00
2022-12-03T18:13:02.225Z,100.00
2022-12-03T18:15:32.421Z,100.00
2022-12-03T18:18:01.071Z,100.00
2022-12-03T18:20:29.706Z,100.00
2022-12-03T18:22:59.743Z,100.00
2022-12-03T18:25:29.461Z,100.00
2022-12-03T18:27:58.244Z,100.00
2022-12-03T18:30:26.982Z,100.00
2022-12-03T18:32:55.779Z,100.00
2022-12-03T18:35:24.718Z,100.00
2022-12-03T18:37:53.731Z,100.00
2022-12-03T18:40:24.816Z,100.00
2022-12-03T18:42:56.498Z,100.00
2022-12-03T18:45:25.420Z,100.00
2022-12-03T18:47:55.212Z,100.00
2022-12-03T18:50:24.246Z,100.00
2022-12-03T18:52:52.877Z,100.00
2022-12-03T18:55:22.167Z,100.00
2022-12-03T18:57:50.894Z,100.00
2022-12-03T19:00:20.515Z,100.00
2022-12-03T19:03:04.914Z,100.00
2022-12-03T19:05:35.374Z,100.00
2022-12-03T19:08:12.795Z,100.00
2022-12-03T19:10:43.672Z,100.00
2022-12-03T19:13:12.529Z,100.00
2022-12-03T19:15:41.506Z,100.00
2022-12-03T19:18:10.133Z,100.00
2022-12-03T19:20:42.335Z,100.00
2022-12-03T19:23:10.924Z,100.00
2022-12-03T19:25:39.826Z,100.00
2022-12-03T19:28:09.447Z,100.00
2022-12-03T19:30:38.120Z,100.00
2022-12-03T19:33:06.906Z,100.00
2022-12-03T19:35:40.208Z,100.00
2022-12-03T19:38:08.789Z,100.00
2022-12-03T19:40:37.780Z,100.00
2022-12-03T19:43:06.647Z,100.00
2022-12-03T19:45:37.322Z,100.00
2022-12-03T19:48:06.376Z,100.00
2022-12-03T19:50:35.082Z,100.00
2022-12-03T19:53:03.908Z,100.00
2022-12-03T19:55:35.735Z,100.00
2022-12-03T19:58:04.446Z,100.00
2022-12-03T20:00:35.876Z,100.00
2022-12-03T20:03:04.707Z,100.00
2022-12-03T20:05:40.918Z,100.00
2022-12-03T20:08:09.745Z,100.00
2022-12-03T20:10:38.779Z,100.00
2022-12-03T20:13:07.623Z,100.00
2022-12-03T20:15:37.826Z,100.00
2022-12-03T20:18:06.513Z,100.00
2022-12-03T20:20:35.521Z,100.00
2022-12-03T20:23:05.008Z,100.00
2022-12-03T20:25:37.748Z,100.00
2022-12-03T20:28:06.487Z,99.96
2022-12-03T20:30:35.276Z,100.00
2022-12-03T20:33:04.266Z,99.94
2022-12-03T20:35:34.082Z,100.00
2022-12-03T20:38:02.769Z,99.22
2022-12-03T20:40:31.507Z,99.72
2022-12-03T20:43:00.174Z,99.09
2022-12-03T20:45:28.918Z,99.48
2022-12-03T20:47:57.714Z,99.63
2022-12-03T20:50:26.488Z,99.95
2022-12-03T20:53:22.669Z,99.48
2022-12-03T20:55:43.927Z,99.50
2022-12-03T20:58:12.629Z,99.61
2022-12-03T21:00:41.297Z,99.16
2022-12-03T21:03:10.080Z,99.46
2022-12-03T21:05:39.337Z,98.85
2022-12-03T21:08:08.178Z,99.31
2022-12-03T21:10:45.283Z,98.63
2022-12-03T21:13:19.015Z,96.64
2022-12-03T21:15:48.424Z,96.35
2022-12-03T21:18:18.577Z,95.70
2022-12-03T21:20:48.184Z,95.06
2022-12-03T21:23:16.921Z,95.59
2022-12-03T21:25:45.725Z,95.14
2022-12-03T21:28:14.429Z,95.67
2022-12-03T21:30:43.174Z,97.01
2022-12-03T21:33:12.105Z,96.61
2022-12-03T21:35:40.854Z,95.73
2022-12-03T21:38:09.673Z,96.66
2022-12-03T21:40:38.465Z,96.78
2022-12-03T21:43:07.166Z,96.56
2022-12-03T21:45:35.877Z,96.87
2022-12-03T21:48:04.712Z,97.56
2022-12-03T21:50:33.961Z,96.89
2022-12-03T21:53:02.802Z,98.45
2022-12-03T21:55:31.654Z,96.02
2022-12-03T21:58:00.369Z,96.25
2022-12-03T22:00:29.188Z,96.02
2022-12-03T22:02:58.105Z,97.49
2022-12-03T22:05:26.957Z,98.06
2022-12-03T22:07:56.085Z,96.31
2022-12-03T22:10:24.852Z,98.34
2022-12-03T22:12:53.836Z,95.78
2022-12-03T22:15:22.827Z,97.09
2022-12-03T22:17:51.721Z,97.42
2022-12-03T22:20:20.409Z,98.56
2022-12-03T22:22:49.321Z,96.89
2022-12-03T22:25:18.396Z,97.18
2022-12-03T22:27:47.288Z,96.14
2022-12-03T22:30:16.380Z,96.43
2022-12-03T22:32:45.072Z,96.12
2022-12-03T22:35:13.963Z,96.81
2022-12-03T22:37:42.794Z,96.42
2022-12-03T22:40:12.243Z,95.49
2022-12-03T22:42:43.988Z,95.51
2022-12-03T22:45:15.672Z,94.92
2022-12-03T22:47:44.485Z,96.88
2022-12-03T22:50:13.455Z,97.15
2022-12-03T22:52:42.539Z,96.00
2022-12-03T22:55:11.539Z,98.13
2022-12-03T22:57:40.255Z,96.81
2022-12-03T23:00:10.800Z,95.74
2022-12-03T23:02:39.741Z,98.37
2022-12-03T23:05:09.558Z,97.00
2022-12-03T23:07:38.595Z,96.78
2022-12-03T23:10:08.676Z,96.93
2022-12-03T23:12:37.547Z,97.40
2022-12-03T23:15:07.870Z,97.83
2022-12-03T23:17:37.121Z,96.06
2022-12-03T23:20:07.289Z,98.38
2022-12-03T23:22:36.232Z,96.73
2022-12-03T23:25:07.663Z,96.17
2022-12-03T23:27:36.776Z,96.81
2022-12-03T23:30:08.421Z,96.20
2022-12-03T23:32:38.630Z,95.70
2022-12-03T23:35:08.969Z,95.85
2022-12-03T23:37:38.177Z,94.99
2022-12-03T23:40:08.276Z,95.81
2022-12-03T23:42:37.094Z,95.69
2022-12-03T23:45:07.098Z,96.60
2022-12-03T23:47:35.736Z,96.04
2022-12-03T23:50:05.813Z,95.80
2022-12-03T23:52:36.955Z,96.73
2022-12-03T23:55:06.656Z,95.16
2022-12-03T23:57:35.744Z,96.93
